createdAt,value
2022-08-26T00:01:56.800Z,99.90
2022-08-26T00:04:26.151Z,99.90
2022-08-26T00:06:55.869Z,99.90
2022-08-26T00:09:26.196Z,99.90
2022-08-26T00:11:54.876Z,99.90
2022-08-26T00:14:28.297Z,99.90
2022-08-26T00:16:59.778Z,99.90
2022-08-26T00:19:28.255Z,99.90
2022-08-26T00:21:56.292Z,99.90
2022-08-26T00:24:26.233Z,99.90
2022-08-26T00:26:54.098Z,99.90
2022-08-26T00:29:22.613Z,99.90
2022-08-26T00:31:51.117Z,99.90
2022-08-26T00:34:19.244Z,99.90
2022-08-26T00:36:49.332Z,99.90
2022-08-26T00:39:20.963Z,99.90
2022-08-26T00:41:50.498Z,99.90
2022-08-26T00:44:18.419Z,99.90
2022-08-26T00:46:50.188Z,99.90
2022-08-26T00:49:25.784Z,99.90
2022-08-26T00:51:56.391Z,99.90
2022-08-26T00:54:28.198Z,99.90
2022-08-26T00:57:02.009Z,99.90
2022-08-26T00:59:33.103Z,99.90
2022-08-26T01:02:02.879Z,99.90
2022-08-26T01:04:34.494Z,99.90
2022-08-26T01:07:03.616Z,99.90
2022-08-26T01:09:32.604Z,99.90
2022-08-26T01:12:04.037Z,99.90
2022-08-26T01:14:36.705Z,99.90
2022-08-26T01:17:07.370Z,99.90
2022-08-26T01:19:43.056Z,99.90
2022-08-26T01:22:17.551Z,99.90
2022-08-26T01:24:48.160Z,99.90
2022-08-26T01:27:20.655Z,99.90
2022-08-26T01:29:51.361Z,99.90
2022-08-26T01:32:24.707Z,99.90
2022-08-26T01:34:54.181Z,99.90
2022-08-26T01:37:26.920Z,99.90
2022-08-26T01:39:57.886Z,99.90
2022-08-26T01:42:28.525Z,99.90
2022-08-26T01:45:04.492Z,99.90
2022-08-26T01:47:34.653Z,99.90
2022-08-26T01:50:08.487Z,99.90
2022-08-26T01:52:39.476Z,99.90
2022-08-26T01:55:10.388Z,99.90
2022-08-26T01:57:39.326Z,99.90
2022-08-26T02:00:13.158Z,99.90
2022-08-26T02:02:47.180Z,99.90
2022-08-26T02:05:22.471Z,99.90
2022-08-26T02:07:50.927Z,99.90
2022-08-26T02:10:20.489Z,99.90
2022-08-26T02:12:48.837Z,99.90
2022-08-26T02:15:17.253Z,99.90
2022-08-26T02:17:47.308Z,99.90
2022-08-26T02:20:20.200Z,99.90
2022-08-26T02:22:48.971Z,99.90
2022-08-26T02:25:24.937Z,99.90
2022-08-26T02:27:54.588Z,99.90
2022-08-26T02:30:27.075Z,99.90
2022-08-26T02:32:56.649Z,99.90
2022-08-26T02:35:25.340Z,99.90
2022-08-26T02:37:54.042Z,99.90
2022-08-26T02:40:26.614Z,99.90
2022-08-26T02:42:55.962Z,99.90
2022-08-26T02:45:26.225Z,99.90
2022-08-26T02:47:55.713Z,99.90
2022-08-26T02:50:25.673Z,99.90
2022-08-26T02:52:54.068Z,99.90
2022-08-26T02:55:24.732Z,99.90
2022-08-26T02:57:53.104Z,99.90
2022-08-26T03:00:21.403Z,99.90
2022-08-26T03:02:50.212Z,99.90
2022-08-26T03:05:19.732Z,99.90
2022-08-26T03:07:48.375Z,99.90
2022-08-26T03:10:17.869Z,99.90
2022-08-26T03:12:48.167Z,99.90
2022-08-26T03:15:18.379Z,99.90
2022-08-26T03:17:47.916Z,99.90
2022-08-26T03:20:17.539Z,99.90
2022-08-26T03:22:46.522Z,99.90
2022-08-26T03:25:16.958Z,99.90
2022-08-26T03:27:45.248Z,99.90
2022-08-26T03:30:33.595Z,99.90
2022-08-26T03:33:02.753Z,99.90
2022-08-26T03:35:31.872Z,99.90
2022-08-26T03:38:00.561Z,99.90
2022-08-26T03:40:30.591Z,99.90
2022-08-26T03:42:59.026Z,99.90
2022-08-26T03:45:29.536Z,99.90
2022-08-26T03:47:57.867Z,99.90
2022-08-26T03:50:27.228Z,99.90
2022-08-26T03:52:56.468Z,99.90
2022-08-26T03:55:27.288Z,99.90
2022-08-26T03:57:55.985Z,99.90
2022-08-26T04:00:24.237Z,99.90
2022-08-26T04:02:54.050Z,99.90
2022-08-26T04:05:23.672Z,99.90
2022-08-26T04:07:52.586Z,99.90
2022-08-26T04:10:29.025Z,99.90
2022-08-26T04:12:58.801Z,99.90
2022-08-26T04:15:27.983Z,99.90
2022-08-26T04:17:57.739Z,99.90
2022-08-26T04:20:25.777Z,99.90
2022-08-26T04:22:54.037Z,99.90
2022-08-26T04:25:22.500Z,99.90
2022-08-26T04:27:52.381Z,99.90
2022-08-26T04:30:21.235Z,99.90
2022-08-26T04:32:51.189Z,99.90
2022-08-26T04:35:25.857Z,99.90
2022-08-26T04:37:55.437Z,99.90
2022-08-26T04:40:24.072Z,99.90
2022-08-26T04:42:54.080Z,99.90
2022-08-26T04:45:22.837Z,99.90
2022-08-26T04:47:54.699Z,99.90
2022-08-26T04:50:25.743Z,99.90
2022-08-26T04:52:55.350Z,99.90
2022-08-26T04:55:38.208Z,99.90
2022-08-26T04:58:10.360Z,99.90
2022-08-26T05:00:39.053Z,99.90
2022-08-26T05:03:10.511Z,99.90
2022-08-26T05:05:41.399Z,99.90
2022-08-26T05:08:11.327Z,99.90
2022-08-26T05:10:43.561Z,99.90
2022-08-26T05:13:14.273Z,99.90
2022-08-26T05:15:44.248Z,99.90
2022-08-26T05:18:14.902Z,99.90
2022-08-26T05:20:46.489Z,99.90
2022-08-26T05:23:15.868Z,99.90
2022-08-26T05:25:46.985Z,99.90
2022-08-26T05:28:19.075Z,99.90
2022-08-26T05:30:48.012Z,99.90
2022-08-26T05:33:18.179Z,99.90
2022-08-26T05:35:48.060Z,99.90
2022-08-26T05:38:19.788Z,99.90
2022-08-26T05:40:52.560Z,99.90
2022-08-26T05:43:21.951Z,99.90
2022-08-26T05:45:51.465Z,99.90
2022-08-26T05:48:22.574Z,99.90
2022-08-26T05:50:54.429Z,99.90
2022-08-26T05:53:25.917Z,99.90
2022-08-26T05:55:55.652Z,99.90
2022-08-26T05:58:24.727Z,99.90
2022-08-26T06:01:00.805Z,99.90
2022-08-26T06:03:29.728Z,99.90
2022-08-26T06:05:59.172Z,99.90
2022-08-26T06:08:28.027Z,99.90
2022-08-26T06:11:00.140Z,99.90
2022-08-26T06:13:30.360Z,99.90
2022-08-26T06:16:01.250Z,99.90
2022-08-26T06:18:32.730Z,99.90
2022-08-26T06:21:11.801Z,99.90
2022-08-26T06:23:56.623Z,99.90
2022-08-26T06:26:27.599Z,99.90
2022-08-26T06:28:55.651Z,99.90
2022-08-26T06:31:24.483Z,99.90
2022-08-26T06:33:53.890Z,99.90
2022-08-26T06:36:26.549Z,99.90
2022-08-26T06:38:56.724Z,99.90
2022-08-26T06:41:25.710Z,98.80
2022-08-26T06:43:54.064Z,95.20
2022-08-26T06:46:22.931Z,94.70
2022-08-26T06:48:51.118Z,93.00
2022-08-26T06:51:22.337Z,98.10
2022-08-26T06:53:54.641Z,94.70
2022-08-26T06:56:25.069Z,96.40
2022-08-26T06:58:55.907Z,90.20
2022-08-26T07:01:27.474Z,83.00
2022-08-26T07:03:58.285Z,93.30
2022-08-26T07:06:27.659Z,87.30
2022-08-26T07:09:04.171Z,91.50
2022-08-26T07:11:33.400Z,87.50
2022-08-26T07:14:01.883Z,76.20
2022-08-26T07:16:30.777Z,84.90
2022-08-26T07:18:59.051Z,81.40
2022-08-26T07:21:29.514Z,79.80
2022-08-26T07:24:01.438Z,79.00
2022-08-26T07:26:31.349Z,73.30
2022-08-26T07:29:00.843Z,74.60
2022-08-26T07:31:36.074Z,66.50
2022-08-26T07:34:09.299Z,65.90
2022-08-26T07:36:37.843Z,60.30
2022-08-26T07:39:07.783Z,66.80
2022-08-26T07:41:36.521Z,72.70
2022-08-26T07:44:05.995Z,57.20
2022-08-26T07:46:36.580Z,61.90
2022-08-26T07:49:04.832Z,57.30
2022-08-26T07:51:33.229Z,58.40
2022-08-26T07:54:01.305Z,60.90
2022-08-26T07:56:30.741Z,45.40
2022-08-26T07:58:59.428Z,36.40
2022-08-26T08:01:29.632Z,50.20
2022-08-26T08:03:58.927Z,44.00
2022-08-26T08:06:28.356Z,49.40
2022-08-26T08:08:57.074Z,24.80
2022-08-26T08:11:27.203Z,39.10
2022-08-26T08:13:57.034Z,38.80
2022-08-26T08:16:26.265Z,31.50
2022-08-26T08:18:54.520Z,18.10
2022-08-26T08:21:24.474Z,16.20
2022-08-26T08:23:53.814Z,21.90
2022-08-26T08:26:22.432Z,26.30
2022-08-26T08:28:52.189Z,28.10
2022-08-26T08:31:45.005Z,20.70
2022-08-26T08:34:11.625Z,22.60
2022-08-26T08:36:39.792Z,27.50
2022-08-26T08:39:07.981Z,32.90
2022-08-26T08:41:58.988Z,28.50
2022-08-26T08:47:06.890Z,22.20
2022-08-26T08:49:36.072Z,24.10
2022-08-26T08:52:11.848Z,24.50
2022-08-26T08:54:40.001Z,22.00
2022-08-26T08:57:14.205Z,22.10
2022-08-26T08:59:51.999Z,18.10
2022-08-26T09:02:28.374Z,24.90
2022-08-26T09:05:14.930Z,24.50
2022-08-26T09:07:49.294Z,20.90
2022-08-26T09:10:32.125Z,23.90
2022-08-26T09:13:02.457Z,18.40
2022-08-26T09:15:44.071Z,22.40
2022-08-26T09:18:25.770Z,18.50
2022-08-26T09:20:59.045Z,18.60
2022-08-26T09:23:27.746Z,17.20
2022-08-26T09:26:02.081Z,14.10
2022-08-26T09:28:31.991Z,14.40
2022-08-26T09:31:12.084Z,14.70
2022-08-26T09:33:42.721Z,16.30
2022-08-26T09:36:17.254Z,17.10
2022-08-26T09:38:46.255Z,18.40
2022-08-26T09:41:22.473Z,22.80
2022-08-26T09:44:15.615Z,22.20
2022-08-26T09:46:52.316Z,23.30
2022-08-26T09:49:36.230Z,25.70
2022-08-26T09:52:20.760Z,24.50
2022-08-26T09:55:03.572Z,24.20
2022-08-26T09:57:33.936Z,19.40
2022-08-26T10:00:03.110Z,21.80
2022-08-26T10:02:41.441Z,22.10
2022-08-26T10:05:20.233Z,22.70
2022-08-26T10:07:51.789Z,22.00
2022-08-26T10:10:24.514Z,21.10
2022-08-26T10:13:03.109Z,17.90
2022-08-26T10:15:40.474Z,20.60
2022-08-26T10:18:21.059Z,19.80
2022-08-26T10:20:57.818Z,19.30
2022-08-26T10:23:30.282Z,17.10
2022-08-26T10:26:05.580Z,16.10
2022-08-26T10:28:41.200Z,18.50
2022-08-26T10:31:19.404Z,15.30
2022-08-26T10:33:47.980Z,17.40
2022-08-26T10:36:52.348Z,17.30
2022-08-26T10:39:31.035Z,14.50
2022-08-26T10:42:09.541Z,12.70
2022-08-26T10:44:43.833Z,14.80
2022-08-26T10:47:18.515Z,14.30
2022-08-26T10:49:48.232Z,11.70
2022-08-26T10:52:23.300Z,11.80
2022-08-26T10:55:05.062Z,13.20
2022-08-26T10:57:44.859Z,12.80
2022-08-26T11:00:36.481Z,10.90
2022-08-26T11:03:22.462Z,13.30
2022-08-26T11:06:16.992Z,11.90
2022-08-26T11:08:49.150Z,12.40
2022-08-26T11:11:50.138Z,13.00
2022-08-26T11:14:56.149Z,13.60
2022-08-26T11:17:57.009Z,15.70
2022-08-26T11:20:36.678Z,13.20
2022-08-26T11:23:39.305Z,15.00
2022-08-26T11:26:35.524Z,12.80
2022-08-26T11:29:13.099Z,10.60
2022-08-26T11:31:56.744Z,12.80
2022-08-26T11:35:00.468Z,13.60
2022-08-26T11:37:36.197Z,11.20
2022-08-26T11:40:13.306Z,12.70
2022-08-26T11:42:45.276Z,12.90
2022-08-26T11:45:20.364Z,13.10
2022-08-26T11:47:49.498Z,11.30
2022-08-26T11:50:20.633Z,11.60
2022-08-26T11:52:53.628Z,9.50
2022-08-26T11:55:23.237Z,10.80
2022-08-26T11:57:56.693Z,8.10
2022-08-26T12:00:33.287Z,8.70
2022-08-26T12:03:07.594Z,9.60
2022-08-26T12:05:39.499Z,8.00
2022-08-26T12:08:09.885Z,8.40
2022-08-26T12:10:39.141Z,7.90
2022-08-26T12:13:09.933Z,9.80
2022-08-26T12:18:28.783Z,5.00
2022-08-26T12:21:01.254Z,7.20
2022-08-26T12:23:41.082Z,3.00
2022-08-26T12:26:14.131Z,6.20
2022-08-26T12:28:47.656Z,3.30
2022-08-26T12:31:23.897Z,5.80
2022-08-26T12:33:53.092Z,5.30
2022-08-26T12:36:25.618Z,6.90
2022-08-26T12:38:57.602Z,6.80
2022-08-26T12:41:47.418Z,6.60
2022-08-26T12:44:53.150Z,7.40
2022-08-26T12:47:35.140Z,6.30
2022-08-26T12:50:18.042Z,8.30
2022-08-26T12:52:57.285Z,6.20
2022-08-26T12:55:35.524Z,9.20
2022-08-26T12:58:15.003Z,5.80
2022-08-26T13:00:46.510Z,5.30
2022-08-26T13:03:47.807Z,6.70
2022-08-26T13:06:25.811Z,8.80
2022-08-26T13:08:56.171Z,8.60
2022-08-26T13:11:26.943Z,8.90
2022-08-26T13:13:58.890Z,7.90
2022-08-26T13:16:28.697Z,9.00
2022-08-26T13:18:59.194Z,6.70
2022-08-26T13:21:29.345Z,7.40
2022-08-26T13:24:06.134Z,5.30
2022-08-26T13:26:35.092Z,5.90
2022-08-26T13:29:07.226Z,6.80
2022-08-26T13:31:41.226Z,6.00
2022-08-26T13:34:10.686Z,4.40
2022-08-26T13:36:39.101Z,5.10
2022-08-26T13:39:07.820Z,4.10
2022-08-26T13:41:36.219Z,5.40
2022-08-26T13:44:04.678Z,4.80
2022-08-26T13:46:32.926Z,5.70
2022-08-26T13:49:02.976Z,5.00
2022-08-26T13:51:32.656Z,8.00
2022-08-26T13:54:01.166Z,6.50
2022-08-26T13:56:30.408Z,6.20
2022-08-26T13:58:59.400Z,6.60
2022-08-26T14:01:28.364Z,5.80
2022-08-26T14:03:56.784Z,5.50
2022-08-26T14:06:27.497Z,5.90
2022-08-26T14:08:55.616Z,5.90
2022-08-26T14:11:24.872Z,7.30
2022-08-26T14:13:53.055Z,7.10
2022-08-26T14:16:25.373Z,5.90
2022-08-26T14:18:53.979Z,5.90
2022-08-26T14:21:22.213Z,6.30
2022-08-26T14:23:51.657Z,6.10
2022-08-26T14:26:28.514Z,6.10
2022-08-26T14:28:57.753Z,5.40
2022-08-26T14:31:27.066Z,5.90
2022-08-26T14:33:57.352Z,5.20
2022-08-26T14:36:32.582Z,4.40
2022-08-26T14:39:05.502Z,5.60
2022-08-26T14:41:35.351Z,6.20
2022-08-26T14:44:06.381Z,6.80
2022-08-26T14:46:41.101Z,6.80
2022-08-26T14:49:10.769Z,7.20
2022-08-26T14:51:40.854Z,8.60
2022-08-26T14:54:12.611Z,8.30
2022-08-26T14:56:45.796Z,7.60
2022-08-26T14:59:15.031Z,9.80
2022-08-26T15:01:43.492Z,9.70
2022-08-26T15:04:11.765Z,9.20
2022-08-26T15:06:40.563Z,10.70
2022-08-26T15:09:10.717Z,11.40
2022-08-26T15:11:38.962Z,11.40
2022-08-26T15:14:08.176Z,12.20
2022-08-26T15:16:48.205Z,10.80
2022-08-26T15:19:16.543Z,11.70
2022-08-26T15:21:46.915Z,12.90
2022-08-26T15:24:18.553Z,11.50
2022-08-26T15:26:47.433Z,10.20
2022-08-26T15:29:15.941Z,11.20
2022-08-26T15:31:44.111Z,11.30
2022-08-26T15:34:16.465Z,10.40
2022-08-26T15:36:46.292Z,8.60
2022-08-26T15:39:17.094Z,11.70
2022-08-26T15:41:45.387Z,9.60
2022-08-26T15:44:16.123Z,12.30
2022-08-26T15:46:44.609Z,10.90
2022-08-26T15:49:17.553Z,11.70
2022-08-26T15:51:50.279Z,12.80
2022-08-26T15:54:22.534Z,13.60
2022-08-26T15:56:52.169Z,14.10
2022-08-26T15:59:22.245Z,14.20
2022-08-26T16:01:51.049Z,14.80
2022-08-26T16:04:19.271Z,15.50
2022-08-26T16:06:51.385Z,15.00
2022-08-26T16:09:24.222Z,14.90
2022-08-26T16:11:52.837Z,16.00
2022-08-26T16:14:21.359Z,15.70
2022-08-26T16:16:50.893Z,15.70
2022-08-26T16:19:19.080Z,15.50
2022-08-26T16:21:47.971Z,16.00
2022-08-26T16:24:16.130Z,15.90
2022-08-26T16:26:45.870Z,16.90
2022-08-26T16:29:16.373Z,16.00
2022-08-26T16:31:44.666Z,16.40
2022-08-26T16:34:12.733Z,17.30
2022-08-26T16:36:41.924Z,17.20
2022-08-26T16:39:10.460Z,17.10
2022-08-26T16:41:38.607Z,16.80
2022-08-26T16:44:08.870Z,18.30
2022-08-26T16:46:39.628Z,17.20
2022-08-26T16:49:07.801Z,17.10
2022-08-26T16:51:37.779Z,17.10
2022-08-26T16:54:07.302Z,18.40
2022-08-26T16:56:35.810Z,19.20
2022-08-26T16:59:04.130Z,19.30
2022-08-26T17:01:33.749Z,19.30
2022-08-26T17:04:01.900Z,20.40
2022-08-26T17:06:30.126Z,19.70
2022-08-26T17:08:58.284Z,20.10
2022-08-26T17:11:27.857Z,20.20
2022-08-26T17:13:56.877Z,20.80
2022-08-26T17:16:27.081Z,21.00
2022-08-26T17:18:57.466Z,20.20
2022-08-26T17:21:26.868Z,19.30
2022-08-26T17:23:56.239Z,19.80
2022-08-26T17:26:24.430Z,21.20
2022-08-26T17:28:52.647Z,19.70
2022-08-26T17:31:21.466Z,20.20
2022-08-26T17:33:53.465Z,20.30
2022-08-26T17:36:27.826Z,20.50
2022-08-26T17:38:57.841Z,18.70
2022-08-26T17:41:26.308Z,19.10
2022-08-26T17:43:54.498Z,20.10
2022-08-26T17:46:22.694Z,18.30
2022-08-26T17:48:50.808Z,18.60
2022-08-26T17:51:20.171Z,17.80
2022-08-26T17:53:50.483Z,18.30
2022-08-26T17:56:23.774Z,17.50
2022-08-26T17:58:52.756Z,17.70
2022-08-26T18:01:21.097Z,17.20
2022-08-26T18:03:49.393Z,16.20
2022-08-26T18:06:17.882Z,17.90
2022-08-26T18:08:46.311Z,16.10
2022-08-26T18:11:17.665Z,17.80
2022-08-26T18:13:47.499Z,17.10
2022-08-26T18:16:17.385Z,19.20
2022-08-26T18:18:46.423Z,19.50
2022-08-26T18:21:16.748Z,18.80
2022-08-26T18:23:45.392Z,18.10
2022-08-26T18:26:19.406Z,17.40
2022-08-26T18:28:47.672Z,17.40
2022-08-26T18:31:16.305Z,17.20
2022-08-26T18:33:44.883Z,14.70
2022-08-26T18:36:18.440Z,12.00
2022-08-26T18:38:47.219Z,14.90
2022-08-26T18:41:21.489Z,15.90
2022-08-26T18:43:50.441Z,15.40
2022-08-26T18:46:19.893Z,15.50
2022-08-26T18:48:49.090Z,10.20
2022-08-26T18:51:20.931Z,11.20
2022-08-26T18:53:49.089Z,6.30
2022-08-26T18:56:18.632Z,5.20
2022-08-26T18:58:49.193Z,1.00
2022-08-26T19:01:18.481Z,1.00
2022-08-26T19:03:47.125Z,1.00
2022-08-26T19:06:17.639Z,1.00
2022-08-26T19:08:49.860Z,1.00
2022-08-26T19:11:31.567Z,1.00
2022-08-26T19:14:02.988Z,1.00
2022-08-26T19:16:31.622Z,1.00
2022-08-26T19:19:01.359Z,1.00
2022-08-26T19:21:30.218Z,1.00
2022-08-26T19:23:59.387Z,1.00
2022-08-26T19:26:28.511Z,1.00
2022-08-26T19:28:57.623Z,1.00
2022-08-26T19:31:27.286Z,1.00
2022-08-26T19:33:56.608Z,1.00
2022-08-26T19:36:27.218Z,1.00
2022-08-26T19:38:56.846Z,1.00
2022-08-26T19:41:36.602Z,1.00
2022-08-26T19:44:08.420Z,1.00
2022-08-26T19:49:11.823Z,1.00
2022-08-26T19:51:39.939Z,1.00
2022-08-26T19:54:08.036Z,1.00
2022-08-26T19:56:36.531Z,1.00
2022-08-26T19:59:04.776Z,1.00
2022-08-26T20:01:32.913Z,1.00
2022-08-26T20:04:02.764Z,6.30
2022-08-26T20:06:30.896Z,10.20
2022-08-26T20:09:00.604Z,10.00
2022-08-26T20:11:29.331Z,12.60
2022-08-26T20:13:57.469Z,12.20
2022-08-26T20:16:25.590Z,8.70
2022-08-26T20:19:11.354Z,9.10
2022-08-26T20:21:41.286Z,1.00
2022-08-26T20:24:13.829Z,8.30
2022-08-26T20:26:43.790Z,7.00
2022-08-26T20:29:13.677Z,9.80
2022-08-26T20:31:44.011Z,4.80
2022-08-26T20:34:13.228Z,7.50
2022-08-26T20:36:43.602Z,7.10
2022-08-26T20:39:11.793Z,4.70
2022-08-26T20:41:40.656Z,4.70
2022-08-26T20:44:09.341Z,11.30
2022-08-26T20:46:37.478Z,13.80
2022-08-26T20:49:07.468Z,19.90
2022-08-26T20:51:37.249Z,25.20
2022-08-26T20:54:07.790Z,24.20
2022-08-26T20:56:36.546Z,28.20
2022-08-26T20:59:06.765Z,23.10
2022-08-26T21:01:37.841Z,26.70
2022-08-26T21:04:13.828Z,24.50
2022-08-26T21:06:52.368Z,29.80
2022-08-26T21:09:23.478Z,32.10
2022-08-26T21:11:52.260Z,40.70
2022-08-26T21:14:23.129Z,39.60
2022-08-26T21:16:54.212Z,37.90
2022-08-26T21:19:22.729Z,41.30
2022-08-26T21:21:50.783Z,44.10
2022-08-26T21:24:19.199Z,42.10
2022-08-26T21:26:48.903Z,46.60
2022-08-26T21:29:17.077Z,45.90
2022-08-26T21:31:46.792Z,48.70
2022-08-26T21:34:15.815Z,47.50
2022-08-26T21:36:43.853Z,48.00
2022-08-26T21:39:12.568Z,49.20
2022-08-26T21:41:41.237Z,47.90
2022-08-26T21:44:11.496Z,50.10
2022-08-26T21:46:39.826Z,48.90
2022-08-26T21:49:11.588Z,50.00
2022-08-26T21:51:46.473Z,47.40
2022-08-26T21:54:15.406Z,49.60
2022-08-26T21:56:46.548Z,48.60
2022-08-26T21:59:18.356Z,49.50
2022-08-26T22:01:47.198Z,48.20
2022-08-26T22:04:15.809Z,56.80
2022-08-26T22:06:46.148Z,56.40
2022-08-26T22:09:16.469Z,61.20
2022-08-26T22:11:46.265Z,60.10
2022-08-26T22:14:17.641Z,55.00
2022-08-26T22:16:50.264Z,55.70
2022-08-26T22:19:19.856Z,58.50
2022-08-26T22:21:49.372Z,67.10
2022-08-26T22:24:17.363Z,67.10
2022-08-26T22:26:45.733Z,77.70
2022-08-26T22:29:15.529Z,66.40
2022-08-26T22:31:43.855Z,64.70
2022-08-26T22:34:15.624Z,61.90
2022-08-26T22:36:46.345Z,64.00
2022-08-26T22:39:15.740Z,66.60
2022-08-26T22:41:43.984Z,57.60
2022-08-26T22:44:13.006Z,64.50
2022-08-26T22:46:43.763Z,65.70
2022-08-26T22:49:15.738Z,71.90
2022-08-26T22:51:44.325Z,70.30
2022-08-26T22:54:12.682Z,74.10
2022-08-26T22:56:41.284Z,74.10
2022-08-26T22:59:10.052Z,75.80
2022-08-26T23:01:40.083Z,76.50
2022-08-26T23:04:10.936Z,75.30
2022-08-26T23:06:42.978Z,79.50
2022-08-26T23:09:12.172Z,80.40
2022-08-26T23:11:43.839Z,80.80
2022-08-26T23:14:12.472Z,79.80
2022-08-26T23:16:42.261Z,79.30
2022-08-26T23:19:13.287Z,85.90
2022-08-26T23:21:41.959Z,80.00
2022-08-26T23:24:10.739Z,79.90
2022-08-26T23:26:41.960Z,84.90
2022-08-26T23:29:11.855Z,86.30
2022-08-26T23:31:41.742Z,87.30
2022-08-26T23:34:29.385Z,82.80
2022-08-26T23:36:58.971Z,84.10
2022-08-26T23:39:28.412Z,87.30
2022-08-26T23:41:56.885Z,90.70
2022-08-26T23:44:26.674Z,90.40
2022-08-26T23:46:55.038Z,91.60
2022-08-26T23:49:25.600Z,88.30
2022-08-26T23:52:11.460Z,92.80
2022-08-26T23:54:40.118Z,95.20
2022-08-26T23:57:09.282Z,93.00
2022-08-26T23:59:38.701Z,90.20
